Time;durP1;ratioP1;P1;durP2;ratioP2;P2;SDS_P1;SDS_P2;PMS_P1;PMS_P2;Temp;Humidity;BMP_temperature;BMP_pressure;BME280_temperature;BME280_humidity;BME280_pressure;Samples;Min_cycle;Max_cycle;Signal;HPM_P1;HPM_P2
2021/05/03 00:00:25;;;;;;;6.30;4.70;;;;;;;7.29;71.24;96609.53;5097235;28;20446;-87
2021/05/03 00:02:51;;;;;;;7.93;5.13;;;;;;;7.21;70.46;96608.66;5094104;28;20455;-87
2021/05/03 00:05:22;;;;;;;6.00;4.40;;;;;;;7.13;71.07;96610.50;5080642;28;20428;-88
2021/05/03 00:07:49;;;;;;;6.63;4.77;;;;;;;7.10;71.34;96608.84;5077340;28;20552;-87
2021/05/03 00:10:16;;;;;;;4.90;4.20;;;;;;;7.00;72.13;96605.06;5076935;28;20877;-87
2021/05/03 00:12:42;;;;;;;8.20;5.67;;;;;;;6.91;72.71;96606.19;5077627;28;20925;-87
2021/05/03 00:15:12;;;;;;;7.00;4.90;;;;;;;6.84;72.50;96609.44;5077611;28;20602;-87
2021/05/03 00:17:39;;;;;;;9.17;4.90;;;;;;;6.78;73.13;96606.13;5076638;28;20537;-87
2021/05/03 00:20:07;;;;;;;9.10;5.27;;;;;;;6.70;74.09;96604.53;5077285;28;20563;-87
2021/05/03 00:22:33;;;;;;;6.40;4.57;;;;;;;6.66;74.40;96604.81;5077055;28;20481;-88
2021/05/03 00:24:59;;;;;;;8.10;5.23;;;;;;;6.57;74.69;96607.88;5076997;28;20424;-87
2021/05/03 00:27:26;;;;;;;6.83;5.27;;;;;;;6.52;74.63;96602.53;5076506;28;20465;-87
2021/05/03 00:29:52;;;;;;;7.20;5.37;;;;;;;6.51;74.46;96601.84;5076693;28;20411;-88
2021/05/03 00:32:18;;;;;;;10.03;5.33;;;;;;;6.50;75.36;96607.69;5076790;28;20455;-87
2021/05/03 00:34:44;;;;;;;5.40;4.47;;;;;;;6.48;75.21;96598.19;5076780;28;20484;-87
2021/05/03 00:37:10;;;;;;;6.67;4.80;;;;;;;6.43;75.63;96603.63;5076812;28;20468;-87
2021/05/03 00:39:36;;;;;;;9.90;5.20;;;;;;;6.41;75.76;96606.84;5076915;28;20783;-87
2021/05/03 00:42:03;;;;;;;13.90;6.13;;;;;;;6.38;75.76;96605.16;5076919;28;20517;-87
2021/05/03 00:44:30;;;;;;;6.10;4.10;;;;;;;6.29;75.71;96607.47;5084936;28;20460;-87
2021/05/03 00:46:58;;;;;;;8.73;5.73;;;;;;;6.30;75.80;96601.59;5094844;28;20437;-86
2021/05/03 00:49:24;;;;;;;7.07;5.40;;;;;;;6.24;76.26;96603.63;5095250;28;20431;-84
2021/05/03 00:51:51;;;;;;;7.37;5.47;;;;;;;6.19;75.84;96604.41;5097549;28;20444;-84
2021/05/03 00:54:17;;;;;;;8.20;5.83;;;;;;;6.15;75.91;96603.22;5098766;28;20440;-85
2021/05/03 00:56:43;;;;;;;7.23;4.87;;;;;;;6.16;76.79;96600.06;5098645;28;20491;-85
2021/05/03 00:59:09;;;;;;;7.00;5.40;;;;;;;6.09;76.88;96602.56;5089727;28;21068;-86
2021/05/03 01:01:36;;;;;;;11.40;6.53;;;;;;;6.14;77.47;96612.50;5076637;28;20601;-86
2021/05/03 01:04:02;;;;;;;7.30;5.37;;;;;;;6.15;78.08;96611.28;5077180;28;20444;-85
2021/05/03 01:06:28;;;;;;;9.03;5.57;;;;;;;6.21;78.19;96607.31;5076748;28;20786;-87
2021/05/03 01:08:54;;;;;;;6.97;5.53;;;;;;;6.28;78.02;96606.00;5077321;28;20481;-85
2021/05/03 01:11:20;;;;;;;10.73;7.40;;;;;;;6.23;78.84;96615.56;5084940;28;20416;-85
2021/05/03 01:13:46;;;;;;;8.83;6.87;;;;;;;6.20;79.11;96613.19;5076930;28;20427;-86
2021/05/03 01:16:12;;;;;;;7.40;6.63;;;;;;;6.21;79.60;96619.97;5077468;28;20422;-86
2021/05/03 01:18:39;;;;;;;9.97;7.13;;;;;;;6.19;79.77;96611.72;5076028;28;20499;-86
2021/05/03 01:21:07;;;;;;;12.13;6.70;;;;;;;6.22;80.03;96616.78;5076238;28;20524;-86
2021/05/03 01:23:34;;;;;;;10.27;7.07;;;;;;;6.19;80.42;96612.44;5075616;28;20445;-86
2021/05/03 01:26:01;;;;;;;11.40;7.47;;;;;;;6.23;80.84;96617.53;5076220;28;20409;-86
2021/05/03 01:28:27;;;;;;;8.93;7.37;;;;;;;6.20;80.62;96623.91;5075897;28;20506;-86
2021/05/03 01:30:54;;;;;;;12.00;7.90;;;;;;;6.20;80.66;96623.91;5075859;28;20930;-86
2021/05/03 01:33:20;;;;;;;10.37;8.13;;;;;;;6.15;80.87;96617.34;5076010;28;20586;-86
2021/05/03 01:35:48;;;;;;;9.50;7.47;;;;;;;6.22;80.66;96618.75;5075956;28;20946;-86
2021/05/03 01:38:16;;;;;;;11.00;8.43;;;;;;;6.19;81.13;96622.44;5075869;28;20544;-86
2021/05/03 01:40:43;;;;;;;12.30;6.73;;;;;;;6.14;81.49;96613.22;5075917;28;20410;-86
2021/05/03 01:43:11;;;;;;;9.20;7.43;;;;;;;6.20;81.09;96621.91;5076034;28;20492;-87
2021/05/03 01:45:38;;;;;;;10.73;7.93;;;;;;;6.22;81.63;96622.16;5076249;28;20459;-86
2021/05/03 01:48:06;;;;;;;11.60;8.67;;;;;;;6.24;81.36;96614.31;5076027;28;20865;-86
2021/05/03 01:50:32;;;;;;;13.50;7.47;;;;;;;6.21;81.14;96630.69;5076389;28;20467;-86
2021/05/03 01:53:00;;;;;;;11.60;7.73;;;;;;;6.14;81.97;96626.59;5077706;28;20525;-87
2021/05/03 01:55:27;;;;;;;10.77;8.17;;;;;;;6.07;81.58;96631.81;5077333;28;20423;-86
2021/05/03 01:57:54;;;;;;;10.50;8.10;;;;;;;5.99;82.30;96634.31;5075635;28;20535;-87
2021/05/03 02:00:20;;;;;;;11.13;8.10;;;;;;;5.90;82.69;96629.28;5075424;28;20516;-87
2021/05/03 02:02:47;;;;;;;11.80;8.07;;;;;;;5.83;83.04;96630.53;5076366;28;20521;-87
2021/05/03 02:05:18;;;;;;;10.87;8.57;;;;;;;5.77;83.80;96635.22;5077864;28;20496;-87
2021/05/03 02:07:45;;;;;;;14.90;9.33;;;;;;;5.73;84.11;96628.72;5076686;28;20877;-87
2021/05/03 02:10:12;;;;;;;10.67;8.30;;;;;;;5.70;84.62;96625.06;5075774;28;20435;-87
2021/05/03 02:12:40;;;;;;;11.60;8.13;;;;;;;5.67;84.89;96625.38;5078028;28;20437;-87
2021/05/03 02:15:08;;;;;;;13.10;8.33;;;;;;;5.62;84.74;96621.50;5079926;28;20455;-87
2021/05/03 02:17:34;;;;;;;9.97;7.93;;;;;;;5.58;85.52;96620.31;5080732;28;20435;-88
2021/05/03 02:20:00;;;;;;;13.87;9.20;;;;;;;5.62;85.24;96623.44;5079926;28;20438;-87
2021/05/03 02:22:26;;;;;;;12.73;9.30;;;;;;;5.55;85.08;96613.28;5080121;28;20481;-87
2021/05/03 02:24:52;;;;;;;12.00;8.40;;;;;;;5.54;85.31;96614.53;5080355;28;20483;-87
2021/05/03 02:27:18;;;;;;;12.30;8.43;;;;;;;5.54;85.20;96619.88;5079940;28;20541;-86
2021/05/03 02:29:45;;;;;;;14.23;9.30;;;;;;;5.46;85.51;96614.34;5079577;28;20532;-86
2021/05/03 02:32:11;;;;;;;10.83;8.57;;;;;;;5.45;85.61;96614.84;5079549;28;20416;-87
2021/05/03 02:34:37;;;;;;;11.30;8.40;;;;;;;5.38;86.48;96616.84;5079846;28;20455;-87
2021/05/03 02:37:03;;;;;;;17.17;11.60;;;;;;;5.31;86.45;96620.06;5079481;28;20971;-86
2021/05/03 02:39:29;;;;;;;14.40;10.50;;;;;;;5.22;87.33;96619.63;5079111;28;20532;-86
2021/05/03 02:41:56;;;;;;;10.93;9.17;;;;;;;5.20;87.23;96620.13;5079800;28;20503;-87
2021/05/03 02:44:22;;;;;;;17.57;10.40;;;;;;;5.21;86.91;96621.56;5079280;28;20482;-87
2021/05/03 02:46:49;;;;;;;14.33;9.73;;;;;;;5.20;87.14;96630.13;5079184;28;20817;-87
2021/05/03 02:49:15;;;;;;;12.73;8.70;;;;;;;5.11;87.19;96625.03;5078835;28;20938;-86
2021/05/03 02:51:41;;;;;;;15.57;8.93;;;;;;;5.13;87.12;96628.69;5078544;28;20446;-86
2021/05/03 02:54:07;;;;;;;13.00;9.80;;;;;;;5.09;87.02;96635.53;5079069;28;20434;-85
2021/05/03 02:56:33;;;;;;;12.33;8.97;;;;;;;5.08;87.67;96632.13;5078819;28;20813;-85
2021/05/03 02:58:59;;;;;;;15.07;8.63;;;;;;;5.08;87.21;96637.47;5078433;28;20464;-86
2021/05/03 03:01:25;;;;;;;13.00;9.40;;;;;;;5.06;87.28;96639.19;5078896;28;21057;-85
2021/05/03 03:03:52;;;;;;;14.67;9.63;;;;;;;5.00;87.99;96644.56;5070600;28;21064;-85
2021/05/03 03:06:19;;;;;;;12.80;10.63;;;;;;;4.94;87.75;96641.22;5078770;28;20520;-85
2021/05/03 03:08:45;;;;;;;12.13;8.87;;;;;;;4.90;88.12;96634.66;5078872;28;20534;-86
2021/05/03 03:11:11;;;;;;;13.00;8.67;;;;;;;4.82;88.68;96629.84;5078747;28;20445;-86
2021/05/03 03:13:37;;;;;;;13.20;10.00;;;;;;;4.85;88.58;96634.19;5079501;28;20813;-86
2021/05/03 03:16:03;;;;;;;13.67;10.53;;;;;;;4.85;88.74;96628.13;5078485;28;20864;-86
2021/05/03 03:18:29;;;;;;;14.40;9.67;;;;;;;4.85;88.75;96631.50;5079368;28;20453;-88
2021/05/03 03:20:56;;;;;;;14.43;10.20;;;;;;;4.79;89.38;96632.78;5078313;28;20445;-87
2021/05/03 03:23:22;;;;;;;13.70;9.93;;;;;;;4.79;89.20;96633.50;5077300;28;20473;-87
2021/05/03 03:25:48;;;;;;;15.97;10.53;;;;;;;4.79;89.76;96632.78;5078893;28;20936;-87
2021/05/03 03:28:15;;;;;;;14.43;9.57;;;;;;;4.84;89.49;96629.34;5079276;28;20466;-87
2021/05/03 03:30:41;;;;;;;15.90;10.30;;;;;;;4.91;89.79;96636.13;5079412;28;20426;-87
2021/05/03 03:33:07;;;;;;;14.27;9.10;;;;;;;4.96;89.38;96633.41;5078425;28;20486;-87
2021/05/03 03:35:33;;;;;;;14.47;10.27;;;;;;;5.00;89.13;96638.50;5078539;28;20516;-87
2021/05/03 03:38:00;;;;;;;16.70;10.43;;;;;;;4.94;88.93;96643.16;5079829;28;20950;-87
2021/05/03 03:40:26;;;;;;;13.00;9.40;;;;;;;4.98;89.36;96647.00;5083146;28;20434;-87
2021/05/03 03:42:52;;;;;;;18.03;10.70;;;;;;;5.01;89.30;96651.34;5099656;28;20481;-86
2021/05/03 03:45:19;;;;;;;16.70;11.13;;;;;;;5.01;89.40;96640.66;5099181;28;20445;-87
2021/05/03 03:47:45;;;;;;;14.80;11.40;;;;;;;4.98;89.16;96655.03;5099604;28;20499;-86
2021/05/03 03:50:12;;;;;;;15.33;11.13;;;;;;;5.06;89.28;96661.31;5089885;28;20524;-87
2021/05/03 03:52:38;;;;;;;15.73;10.50;;;;;;;4.94;89.46;96665.28;5080898;28;20486;-87
2021/05/03 03:55:06;;;;;;;17.07;9.67;;;;;;;4.95;89.75;96668.69;5079987;28;20412;-86
2021/05/03 03:57:32;;;;;;;13.53;9.17;;;;;;;4.96;89.21;96660.16;5079614;28;20473;-86
2021/05/03 03:59:59;;;;;;;14.53;10.43;;;;;;;4.96;89.73;96662.81;5080055;28;20449;-86
2021/05/03 04:02:25;;;;;;;14.40;11.70;;;;;;;4.92;89.83;96662.34;5080513;28;20448;-86
2021/05/03 04:05:03;;;;;;;14.23;11.17;;;;;;;5.00;89.26;96662.56;5081836;28;20437;-86
2021/05/03 04:07:34;;;;;;;16.60;10.83;;;;;;;4.95;89.06;96661.34;5078988;28;20506;-87
2021/05/03 04:10:04;;;;;;;23.43;13.43;;;;;;;4.85;89.90;96668.22;5078896;28;20433;-87
2021/05/03 04:12:45;;;;;;;21.90;12.07;;;;;;;4.85;90.27;96670.91;5079133;28;20517;-86
2021/05/03 04:23:46;;;;;;;16.20;11.60;;;;;;;5.39;89.09;96671.06;5080600;28;20472;-86
2021/05/03 04:26:13;;;;;;;18.83;11.43;;;;;;;5.48;88.15;96686.81;5079465;28;20741;-87
2021/05/03 04:28:40;;;;;;;17.87;12.10;;;;;;;5.68;87.88;96685.69;5078291;28;21036;-86
2021/05/03 04:31:06;;;;;;;14.20;11.13;;;;;;;6.05;86.95;96677.84;5080958;28;20469;-86
2021/05/03 04:33:33;;;;;;;13.07;10.13;;;;;;;6.32;84.72;96684.16;5081922;28;20505;-87
2021/05/03 04:35:59;;;;;;;15.40;11.23;;;;;;;6.69;83.99;96692.28;5082331;28;20528;-88
2021/05/03 04:38:26;;;;;;;13.83;9.57;;;;;;;7.15;82.03;96691.19;5083456;28;20465;-87
2021/05/03 04:40:52;;;;;;;18.10;10.10;;;;;;;7.26;80.22;96691.06;5082947;28;20437;-86
2021/05/03 04:43:19;;;;;;;13.73;10.20;;;;;;;7.12;80.02;96692.22;5090548;28;20504;-87
2021/05/03 04:45:46;;;;;;;17.77;11.30;;;;;;;6.86;80.48;96695.47;5078693;28;20404;-86
2021/05/03 04:48:12;;;;;;;13.13;10.13;;;;;;;6.91;80.57;96699.34;5077856;28;20551;-86
2021/05/03 04:50:39;;;;;;;16.40;10.70;;;;;;;6.97;81.44;96690.00;5077468;28;20472;-87
2021/05/03 04:53:05;;;;;;;16.30;10.50;;;;;;;7.37;80.35;96700.91;5056237;28;614101;-87
2021/05/03 04:55:31;;;;;;;15.63;11.03;;;;;;;7.79;78.88;96702.72;5080186;28;20495;-87
2021/05/03 04:57:57;;;;;;;13.13;10.57;;;;;;;8.31;77.31;96710.19;5078881;28;20443;-87
2021/05/03 05:00:24;;;;;;;15.43;10.60;;;;;;;8.57;74.82;96710.19;5078914;28;20476;-88
2021/05/03 05:02:51;;;;;;;13.30;9.87;;;;;;;8.70;73.85;96717.53;5078775;28;20468;-86
2021/05/03 05:05:17;;;;;;;12.97;10.30;;;;;;;8.92;72.57;96717.09;5079231;28;20436;-86
2021/05/03 05:07:43;;;;;;;14.73;10.63;;;;;;;9.04;71.95;96714.91;5078489;28;20456;-86
2021/05/03 05:10:11;;;;;;;13.60;10.30;;;;;;;9.44;70.90;96715.53;5079221;28;20515;-88
2021/05/03 05:12:37;;;;;;;13.87;9.27;;;;;;;9.67;69.71;96721.88;5079155;28;20836;-87
2021/05/03 05:15:05;;;;;;;14.93;9.80;;;;;;;10.12;67.68;96718.81;5080004;28;20515;-87
2021/05/03 05:17:32;;;;;;;18.20;9.50;;;;;;;10.10;66.87;96721.34;5079137;28;20504;-86
2021/05/03 05:20:00;;;;;;;27.20;10.13;;;;;;;10.35;67.27;96719.75;5078684;28;20396;-86
2021/05/03 05:22:26;;;;;;;10.03;8.80;;;;;;;10.68;65.19;96728.97;5079583;28;21035;-86
2021/05/03 05:24:52;;;;;;;14.10;9.53;;;;;;;10.80;64.58;96730.09;5071187;28;20437;-87
2021/05/03 05:27:18;;;;;;;13.00;8.93;;;;;;;10.90;64.04;96731.03;5079226;28;20656;-86
2021/05/03 05:29:44;;;;;;;12.00;10.07;;;;;;;10.92;63.81;96725.13;5078811;28;20532;-86
2021/05/03 05:32:11;;;;;;;10.37;9.20;;;;;;;10.73;63.76;96728.09;5078081;28;20438;-88
2021/05/03 05:34:37;;;;;;;16.53;9.80;;;;;;;10.27;65.54;96721.69;5078826;28;20476;-87
2021/05/03 05:37:04;;;;;;;13.40;9.57;;;;;;;9.86;66.04;96724.38;5078680;28;20960;-88
2021/05/03 05:39:30;;;;;;;10.20;8.80;;;;;;;9.67;67.45;96728.00;5078195;28;20415;-88
2021/05/03 05:41:56;;;;;;;14.87;10.00;;;;;;;9.63;67.39;96730.28;5078376;28;20976;-86
2021/05/03 05:44:23;;;;;;;15.63;9.47;;;;;;;9.71;67.16;96732.31;5079724;28;20503;-87
2021/05/03 05:46:49;;;;;;;11.47;9.20;;;;;;;9.37;68.31;96735.00;5078780;28;20462;-88
2021/05/03 05:49:15;;;;;;;16.20;9.77;;;;;;;9.66;67.68;96737.31;5082285;28;20457;-86
2021/05/03 05:51:42;;;;;;;16.13;11.27;;;;;;;10.60;65.49;96749.78;5081885;28;20428;-86
2021/05/03 05:54:09;;;;;;;12.23;8.50;;;;;;;11.41;62.45;96751.94;5084244;28;20405;-84
2021/05/03 05:56:35;;;;;;;11.00;9.07;;;;;;;11.49;61.16;96750.75;5084675;28;20493;-86
2021/05/03 05:59:02;;;;;;;10.67;9.30;;;;;;;12.09;59.73;96744.72;5095681;28;20471;-86
2021/05/03 06:01:36;;;;;;;13.83;10.03;;;;;;;12.11;59.22;96752.31;5109616;28;20463;-93
2021/05/03 06:04:03;;;;;;;11.20;8.23;;;;;;;12.47;58.16;96763.66;5109897;28;20769;-92
2021/05/03 06:06:29;;;;;;;12.40;9.90;;;;;;;12.86;57.03;96749.53;5109184;28;20430;-92
2021/05/03 06:08:55;;;;;;;11.10;9.07;;;;;;;13.41;54.82;96754.94;5108334;28;20467;-92
2021/05/03 06:11:23;;;;;;;10.90;8.90;;;;;;;12.94;55.89;96751.50;5105799;28;20821;-93
2021/05/03 06:13:49;;;;;;;10.43;7.50;;;;;;;13.45;55.03;96761.97;5106942;28;20980;-93
2021/05/03 06:16:17;;;;;;;10.83;9.10;;;;;;;13.89;53.21;96761.03;5106607;28;20452;-92
2021/05/03 06:18:48;;;;;;;13.20;10.07;;;;;;;14.56;52.04;96763.09;5108156;28;20461;-95
2021/05/03 06:21:14;;;;;;;9.33;8.43;;;;;;;14.73;50.34;96765.81;5108816;28;20431;-95
2021/05/03 06:23:41;;;;;;;11.03;9.80;;;;;;;14.36;50.70;96767.59;5109072;28;20432;-93
2021/05/03 06:26:10;;;;;;;9.07;8.10;;;;;;;14.26;51.82;96761.31;5109923;28;20420;-93
2021/05/03 06:28:37;;;;;;;10.80;8.30;;;;;;;14.63;50.93;96771.16;5109410;28;20570;-94
2021/05/03 06:31:03;;;;;;;11.40;8.93;;;;;;;14.92;50.51;96769.44;5109840;28;20462;-95
2021/05/03 06:33:30;;;;;;;12.20;9.10;;;;;;;14.99;49.79;96779.50;5111155;28;20437;-95
2021/05/03 06:36:05;;;;;;;12.67;10.10;;;;;;;15.10;49.46;96778.28;5118930;28;20441;-95
2021/05/03 06:38:32;;;;;;;12.47;9.67;;;;;;;15.31;50.02;96777.91;5121113;28;20432;-91
2021/05/03 06:52:06;;;;;;;8.47;7.67;;;;;;;15.90;47.64;96788.59;5092392;28;20450;-91
2021/05/03 07:06:22;;;;;;;14.67;8.80;;;;;;;16.45;45.13;96798.84;6323518;22;822930;-93
2021/05/03 07:08:49;;;;;;;9.80;8.10;;;;;;;16.51;45.55;96797.28;6333948;22;20177;-90
2021/05/03 07:11:19;;;;;;;10.70;9.60;;;;;;;16.64;45.50;96803.66;6330639;22;20388;-94
2021/05/03 07:13:45;;;;;;;12.40;8.60;;;;;;;16.71;45.23;96797.38;6324320;22;20470;-89
2021/05/03 07:16:11;;;;;;;10.23;9.13;;;;;;;16.86;44.38;96808.00;6334829;22;20434;-94
2021/05/03 07:18:39;;;;;;;10.43;9.20;;;;;;;16.44;45.50;96805.59;6322419;22;20427;-91
2021/05/03 07:21:06;;;;;;;14.27;9.83;;;;;;;15.96;45.92;96800.66;6323901;22;20419;-94
2021/05/03 07:23:33;;;;;;;10.70;9.50;;;;;;;15.90;46.53;96802.94;6322682;22;20437;-91
2021/05/03 07:26:00;;;;;;;15.10;10.30;;;;;;;15.44;47.43;96791.88;6324412;22;20418;-93
2021/05/03 07:28:27;;;;;;;10.80;9.70;;;;;;;15.54;48.29;96798.13;6321170;22;20431;-90
2021/05/03 07:30:58;;;;;;;15.43;9.80;;;;;;;15.42;48.00;96791.00;6325344;22;20792;-91
2021/05/03 07:33:26;;;;;;;11.40;9.07;;;;;;;15.44;48.21;96796.59;6325125;22;20376;-92
2021/05/03 07:35:52;;;;;;;10.50;8.33;;;;;;;15.99;46.76;96801.53;6338040;22;20504;-90
2021/05/03 07:38:19;;;;;;;11.03;8.17;;;;;;;16.14;48.77;96797.88;6319461;22;20399;-92
2021/05/03 07:40:46;;;;;;;10.33;8.10;;;;;;;17.25;47.54;96795.88;6331733;22;20469;-94
2021/05/03 07:43:13;;;;;;;11.40;8.33;;;;;;;17.40;45.46;96794.84;6335023;22;20391;-92
2021/05/03 07:45:39;;;;;;;19.30;9.77;;;;;;;16.86;45.62;96789.66;6338571;22;20407;-92
2021/05/03 07:48:05;;;;;;;11.57;10.30;;;;;;;16.77;46.23;96789.63;6330091;22;20551;-91
2021/05/03 07:50:31;;;;;;;18.73;10.17;;;;;;;16.58;46.58;96788.31;6322526;22;20545;-92
2021/05/03 07:52:58;;;;;;;12.00;9.70;;;;;;;15.38;48.15;96785.25;6326030;22;20425;-92
2021/05/03 07:55:25;;;;;;;10.80;9.70;;;;;;;15.67;49.62;96785.44;6318327;22;20451;-92
2021/05/03 07:57:52;;;;;;;11.80;8.80;;;;;;;15.93;48.15;96784.75;6318493;22;20897;-92
2021/05/03 08:00:19;;;;;;;12.60;10.03;;;;;;;14.89;49.75;96784.13;6319782;22;20396;-94
2021/05/03 08:02:45;;;;;;;11.50;10.40;;;;;;;14.15;50.75;96776.06;6330577;22;20388;-95
2021/05/03 08:05:12;;;;;;;11.83;10.10;;;;;;;14.01;50.32;96779.56;6335435;22;20473;-95
2021/05/03 08:07:38;;;;;;;11.47;10.27;;;;;;;13.65;51.58;96780.69;6347747;22;20921;-93
2021/05/03 08:10:06;;;;;;;13.80;9.50;;;;;;;12.72;53.28;96775.34;6354925;22;20423;-93
2021/05/03 08:12:33;;;;;;;15.57;9.40;;;;;;;12.16;55.98;96783.84;6345465;22;20399;-92
2021/05/03 08:15:09;;;;;;;15.33;10.33;;;;;;;11.45;57.90;96780.09;6346032;22;20743;-90
2021/05/03 08:17:36;;;;;;;12.50;10.47;;;;;;;11.36;59.91;96777.16;6345997;22;20391;-92
2021/05/03 08:20:02;;;;;;;17.17;10.37;;;;;;;10.81;61.08;96772.03;6341570;22;20556;-87
2021/05/03 08:22:28;;;;;;;12.37;10.40;;;;;;;10.86;60.75;96781.25;6347953;22;20456;-87
2021/05/03 08:24:55;;;;;;;13.90;11.13;;;;;;;10.75;60.83;96782.97;6344487;22;20411;-90
2021/05/03 08:27:21;;;;;;;13.30;9.97;;;;;;;10.31;61.91;96778.69;6345457;22;20882;-88
2021/05/03 08:29:47;;;;;;;14.63;10.73;;;;;;;9.91;63.99;96777.41;6348588;22;20456;-91
2021/05/03 08:32:14;;;;;;;16.87;11.17;;;;;;;9.76;64.31;96775.31;6346308;22;20777;-92
2021/05/03 08:34:40;;;;;;;12.50;10.67;;;;;;;9.75;65.19;96770.44;6353143;22;20450;-92
2021/05/03 08:37:06;;;;;;;15.27;9.90;;;;;;;9.57;65.27;96775.47;6345472;22;20409;-93
2021/05/03 08:39:32;;;;;;;16.50;11.10;;;;;;;9.65;65.03;96778.97;6348723;22;20413;-92
2021/05/03 08:42:00;;;;;;;14.23;10.97;;;;;;;9.58;64.43;96776.19;6351527;22;20891;-94
2021/05/03 08:44:28;;;;;;;13.00;10.27;;;;;;;9.70;64.43;96774.72;6346892;22;20417;-93
2021/05/03 08:46:55;;;;;;;14.83;11.20;;;;;;;9.76;65.52;96775.31;6346407;22;20394;-93
2021/05/03 08:49:28;;;;;;;13.53;10.87;;;;;;;9.93;64.45;96777.63;6347358;22;20467;-92
2021/05/03 08:52:00;;;;;;;13.07;11.13;;;;;;;10.05;62.58;96784.94;6345005;22;20429;-91
2021/05/03 08:54:31;;;;;;;11.33;8.80;;;;;;;10.04;62.40;96782.75;6349850;22;20417;-93
2021/05/03 08:56:58;;;;;;;11.97;10.17;;;;;;;10.26;62.09;96776.13;6347888;22;20409;-93
2021/05/03 08:59:24;;;;;;;12.90;10.27;;;;;;;10.25;61.69;96774.69;6348017;22;20813;-90
2021/05/03 09:01:52;;;;;;;14.30;10.27;;;;;;;10.28;61.69;96766.25;6351998;22;20401;-92
2021/05/03 09:04:19;;;;;;;12.13;8.60;;;;;;;10.42;60.35;96778.44;6364353;22;20487;-93
2021/05/03 09:07:00;;;;;;;12.23;9.27;;;;;;;10.67;58.76;96776.09;6361326;22;20424;-91
2021/05/03 09:09:34;;;;;;;14.23;8.80;;;;;;;10.55;57.66;96775.66;6367270;22;20390;-92
2021/05/03 09:12:02;;;;;;;14.87;8.47;;;;;;;10.92;57.35;96777.16;6367385;22;20365;-92
2021/05/03 09:14:31;;;;;;;15.30;9.10;;;;;;;11.16;56.08;96781.38;6365205;22;20417;-90
2021/05/03 09:16:57;;;;;;;9.43;8.47;;;;;;;11.26;56.39;96771.53;6349127;22;20411;-92
2021/05/03 09:19:24;;;;;;;11.33;8.80;;;;;;;11.28;56.32;96777.13;6349694;22;20449;-92
2021/05/03 09:21:50;;;;;;;9.27;7.80;;;;;;;11.31;56.07;96767.94;6356030;22;20399;-91
2021/05/03 09:24:22;;;;;;;13.03;9.53;;;;;;;11.28;56.40;96767.03;6350614;22;20410;-93
2021/05/03 09:26:52;;;;;;;15.70;10.13;;;;;;;11.40;55.79;96762.06;6345628;22;20404;-88
2021/05/03 09:29:26;;;;;;;12.20;8.43;;;;;;;11.03;56.22;96763.31;6342329;22;20776;-87
2021/05/03 09:31:57;;;;;;;11.80;8.63;;;;;;;11.06;55.54;96753.44;6344764;22;20835;-90
2021/05/03 09:34:28;;;;;;;11.30;8.90;;;;;;;11.04;55.12;96766.75;6347938;22;20497;-91
2021/05/03 09:37:15;;;;;;;10.20;8.80;;;;;;;10.96;55.12;96757.91;6361951;22;20402;-92
2021/05/03 09:39:43;;;;;;;13.23;9.03;;;;;;;11.04;56.31;96762.09;6360051;22;20712;-92
2021/05/03 09:42:09;;;;;;;13.43;9.03;;;;;;;11.12;55.47;96764.81;6364546;22;20407;-93
2021/05/03 09:44:36;;;;;;;9.80;8.80;;;;;;;11.10;55.61;96756.53;6364882;22;20417;-93
2021/05/03 09:47:02;;;;;;;17.57;11.87;;;;;;;11.23;56.35;96761.81;6353858;22;20780;-93
2021/05/03 09:49:28;;;;;;;15.97;8.90;;;;;;;11.28;54.56;96750.09;6351119;22;20400;-91
2021/05/03 09:51:57;;;;;;;9.80;7.90;;;;;;;11.32;53.74;96755.16;6346198;22;20692;-91
2021/05/03 09:54:27;;;;;;;10.23;8.23;;;;;;;11.38;55.90;96753.75;6345537;22;20410;-90
2021/05/03 09:57:01;;;;;;;19.73;9.50;;;;;;;11.51;57.17;96761.72;6350460;22;20466;-91
2021/05/03 09:59:32;;;;;;;15.50;8.47;;;;;;;11.69;55.85;96763.38;6350794;22;20463;-91
2021/05/03 10:02:07;;;;;;;12.03;8.93;;;;;;;11.86;53.97;96764.91;6350206;22;20403;-92
2021/05/03 10:04:35;;;;;;;9.40;8.13;;;;;;;11.97;53.02;96759.13;6349859;22;20389;-93
2021/05/03 10:07:02;;;;;;;11.07;8.40;;;;;;;12.13;52.46;96760.59;6349104;22;20483;-90
2021/05/03 10:09:30;;;;;;;9.50;8.43;;;;;;;12.60;52.32;96760.75;6349980;22;20385;-91
2021/05/03 10:11:58;;;;;;;13.90;8.57;;;;;;;12.83;52.22;96761.44;6352212;22;20460;-91
2021/05/03 10:14:24;;;;;;;8.97;7.20;;;;;;;12.71;48.07;96748.84;6348574;22;20446;-91
2021/05/03 10:16:52;;;;;;;13.60;8.47;;;;;;;12.66;49.34;96744.31;6348406;22;20405;-91
2021/05/03 10:19:20;;;;;;;10.63;7.50;;;;;;;12.55;48.39;96750.84;6348494;22;20374;-93
2021/05/03 10:21:47;;;;;;;7.90;6.80;;;;;;;12.85;47.90;96760.91;6352868;22;20358;-92
2021/05/03 10:24:15;;;;;;;9.93;7.17;;;;;;;12.76;48.06;96747.91;6356325;22;20470;-93
2021/05/03 10:26:49;;;;;;;12.60;6.70;;;;;;;12.93;47.73;96752.75;6356277;22;20500;-91
2021/05/03 10:29:27;;;;;;;7.90;6.73;;;;;;;13.16;44.78;96754.16;6347697;22;20472;-93
2021/05/03 10:32:01;;;;;;;5.63;5.07;;;;;;;13.30;44.68;96752.66;6347277;22;20481;-92
2021/05/03 10:34:46;;;;;;;9.40;5.67;;;;;;;13.45;43.46;96757.28;6347001;22;20428;-90
2021/05/03 10:37:47;;;;;;;9.63;5.13;;;;;;;13.59;44.26;96750.38;6346561;22;20426;-91
2021/05/03 10:40:41;;;;;;;11.03;6.90;;;;;;;13.80;42.70;96745.34;6341200;22;20442;-93
2021/05/03 10:43:14;;;;;;;6.87;5.70;;;;;;;13.81;42.97;96744.06;6333761;22;20410;-93
2021/05/03 10:45:48;;;;;;;7.30;5.30;;;;;;;13.80;42.26;96737.22;6349215;22;20394;-94
2021/05/03 10:48:37;;;;;;;6.40;5.27;;;;;;;13.94;40.59;96722.09;6347863;22;20384;-91
2021/05/03 10:51:07;;;;;;;7.53;4.80;;;;;;;13.75;41.28;96727.28;6348210;22;20640;-91
2021/05/03 10:53:39;;;;;;;6.13;5.30;;;;;;;13.68;41.53;96725.34;6348134;22;20392;-92
2021/05/03 10:56:08;;;;;;;6.90;5.40;;;;;;;13.65;41.74;96718.31;6350386;22;20771;-93
2021/05/03 10:59:08;;;;;;;5.13;3.63;;;;;;;13.36;39.99;96709.81;6348927;22;20422;-90
2021/05/03 11:02:10;;;;;;;6.60;4.77;;;;;;;13.06;42.60;96707.19;6348148;22;20407;-90
2021/05/03 11:04:39;;;;;;;6.27;4.20;;;;;;;13.08;42.91;96706.66;6338820;22;20403;-90
2021/05/03 11:07:07;;;;;;;6.17;4.33;;;;;;;13.11;40.91;96705.59;6347866;22;20405;-90
2021/05/03 11:09:41;;;;;;;9.77;4.20;;;;;;;13.05;40.39;96699.63;6349138;22;20391;-90
2021/05/03 11:12:37;;;;;;;5.70;4.17;;;;;;;13.40;39.68;96701.31;6346461;22;20396;-90
2021/05/03 11:15:27;;;;;;;6.60;4.13;;;;;;;13.33;38.45;96704.75;6283918;22;20585;-90
2021/05/03 11:18:20;;;;;;;6.67;4.47;;;;;;;13.31;39.33;96696.47;6344553;22;20482;-90
2021/05/03 11:21:05;;;;;;;8.27;5.70;;;;;;;13.40;39.42;96704.00;6366014;22;20384;-89
2021/05/03 11:23:35;;;;;;;5.13;3.60;;;;;;;13.36;39.48;96701.69;6366475;22;20385;-90
2021/05/03 11:26:02;;;;;;;6.33;3.87;;;;;;;13.39;37.44;96700.56;6361959;22;20438;-90
2021/05/03 11:28:32;;;;;;;4.40;3.60;;;;;;;13.31;37.91;96691.06;6351707;22;20363;-90
2021/05/03 11:31:00;;;;;;;3.87;3.30;;;;;;;13.36;38.27;96690.13;6351133;22;20362;-90
2021/05/03 11:33:44;;;;;;;4.90;3.63;;;;;;;13.34;38.67;96693.34;6347839;22;20384;-90
2021/05/03 11:36:21;;;;;;;4.73;2.83;;;;;;;13.45;39.09;96689.50;6354875;22;20431;-91
2021/05/03 11:38:54;;;;;;;4.07;3.40;;;;;;;13.66;38.37;96681.06;6365998;22;20375;-91
2021/05/03 11:41:31;;;;;;;7.50;4.00;;;;;;;13.62;38.39;96676.03;6367285;22;20429;-90
2021/05/03 11:44:10;;;;;;;3.93;3.63;;;;;;;13.83;38.82;96684.56;6368241;22;20391;-91
2021/05/03 11:46:39;;;;;;;4.93;3.60;;;;;;;14.24;37.87;96675.00;6348981;22;20725;-91
2021/05/03 11:49:16;;;;;;;5.07;3.43;;;;;;;14.52;36.96;96670.41;6349541;22;20681;-90
2021/05/03 11:51:45;;;;;;;7.93;3.70;;;;;;;14.64;36.39;96666.66;6348444;22;20432;-90
2021/05/03 11:54:27;;;;;;;3.80;2.90;;;;;;;14.67;35.93;96662.13;6348360;22;20466;-91
2021/05/03 11:56:58;;;;;;;4.37;3.03;;;;;;;14.59;36.48;96661.47;6346105;22;20398;-91
2021/05/03 11:59:24;;;;;;;7.67;3.67;;;;;;;14.69;36.75;96657.56;6348836;22;20490;-89
2021/05/03 12:02:02;;;;;;;3.33;3.00;;;;;;;14.80;36.02;96651.63;6350368;22;20396;-91
2021/05/03 12:04:34;;;;;;;4.60;3.33;;;;;;;14.97;35.84;96653.63;6352255;22;20987;-91
2021/05/03 12:07:10;;;;;;;3.40;2.97;;;;;;;15.25;36.33;96657.78;6351331;22;20426;-92